sensor_id;sensor_type;location;lat;lon;timestamp;pressure;altitude;pressure_sealevel;temperature;humidity
40954;BME280;26686;50.130;8.710;2023-02-12T00:02:50;102226.88;;;7.81;74.80
40954;BME280;26686;50.130;8.710;2023-02-12T00:07:52;102239.03;;;7.86;75.13
40954;BME280;26686;50.130;8.710;2023-02-12T00:12:54;102241.81;;;7.83;75.02
40954;BME280;26686;50.130;8.710;2023-02-12T00:17:55;102258.38;;;7.90;75.44
40954;BME280;26686;50.130;8.710;2023-02-12T00:22:56;102254.78;;;7.91;75.29
40954;BME280;26686;50.130;8.710;2023-02-12T00:27:58;102252.19;;;7.89;75.14
40954;BME280;26686;50.130;8.710;2023-02-12T00:32:59;102240.19;;;7.79;75.23
40954;BME280;26686;50.130;8.710;2023-02-12T00:38:01;102253.38;;;7.82;75.69
40954;BME280;26686;50.130;8.710;2023-02-12T00:43:02;102254.03;;;7.87;75.36
40954;BME280;26686;50.130;8.710;2023-02-12T00:48:04;102246.03;;;7.89;75.29
40954;BME280;26686;50.130;8.710;2023-02-12T00:53:06;102251.34;;;7.89;75.01
40954;BME280;26686;50.130;8.710;2023-02-12T00:58:08;102204.53;;;7.64;75.05
40954;BME280;26686;50.130;8.710;2023-02-12T01:03:10;102246.16;;;7.86;75.47
40954;BME280;26686;50.130;8.710;2023-02-12T01:08:13;102250.72;;;7.81;75.30
40954;BME280;26686;50.130;8.710;2023-02-12T01:13:15;102249.25;;;7.73;75.01
40954;BME280;26686;50.130;8.710;2023-02-12T01:18:16;102244.06;;;7.70;75.20
40954;BME280;26686;50.130;8.710;2023-02-12T01:23:18;102236.13;;;7.70;74.94
40954;BME280;26686;50.130;8.710;2023-02-12T01:28:19;102246.97;;;7.63;75.23
40954;BME280;26686;50.130;8.710;2023-02-12T01:33:20;102250.16;;;7.72;75.44
40954;BME280;26686;50.130;8.710;2023-02-12T01:38:22;102248.44;;;7.71;75.25
40954;BME280;26686;50.130;8.710;2023-02-12T01:43:23;102243.69;;;7.56;75.30
40954;BME280;26686;50.130;8.710;2023-02-12T01:48:26;102255.69;;;7.66;75.33
40954;BME280;26686;50.130;8.710;2023-02-12T01:53:34;102243.34;;;7.65;75.01
40954;BME280;26686;50.130;8.710;2023-02-12T01:58:39;102248.66;;;7.65;75.50
40954;BME280;26686;50.130;8.710;2023-02-12T02:03:44;102250.50;;;7.63;75.48
40954;BME280;26686;50.130;8.710;2023-02-12T02:08:48;102264.66;;;7.62;76.04
40954;BME280;26686;50.130;8.710;2023-02-12T02:13:50;102258.28;;;7.68;75.79
40954;BME280;26686;50.130;8.710;2023-02-12T02:25:14;102232.53;;;7.71;75.38
40954;BME280;26686;50.130;8.710;2023-02-12T02:30:30;102239.63;;;7.71;75.46
40954;BME280;26686;50.130;8.710;2023-02-12T02:41:37;102238.31;;;7.83;76.09
40954;BME280;26686;50.130;8.710;2023-02-12T02:46:49;102240.72;;;7.89;75.63
40954;BME280;26686;50.130;8.710;2023-02-12T02:51:59;102233.63;;;7.89;75.64
40954;BME280;26686;50.130;8.710;2023-02-12T02:57:27;102218.25;;;7.75;74.88
40954;BME280;26686;50.130;8.710;2023-02-12T03:02:33;102236.69;;;7.78;75.71
40954;BME280;26686;50.130;8.710;2023-02-12T03:07:41;102221.41;;;7.61;75.81
40954;BME280;26686;50.130;8.710;2023-02-12T03:12:50;102247.28;;;7.78;75.82
40954;BME280;26686;50.130;8.710;2023-02-12T03:17:53;102240.03;;;7.84;75.50
40954;BME280;26686;50.130;8.710;2023-02-12T03:23:02;102243.66;;;7.81;75.68
40954;BME280;26686;50.130;8.710;2023-02-12T03:28:10;102245.41;;;7.82;75.61
40954;BME280;26686;50.130;8.710;2023-02-12T03:33:29;102240.97;;;7.83;75.92
40954;BME280;26686;50.130;8.710;2023-02-12T03:38:43;102237.72;;;7.74;75.92
40954;BME280;26686;50.130;8.710;2023-02-12T03:43:52;102209.91;;;7.61;75.61
40954;BME280;26686;50.130;8.710;2023-02-12T03:49:19;102246.25;;;7.83;75.55
40954;BME280;26686;50.130;8.710;2023-02-12T03:54:22;102251.56;;;7.83;76.02
40954;BME280;26686;50.130;8.710;2023-02-12T03:59:25;102258.59;;;7.84;76.05
40954;BME280;26686;50.130;8.710;2023-02-12T04:04:27;102237.72;;;7.74;75.52
40954;BME280;26686;50.130;8.710;2023-02-12T04:09:30;102254.44;;;7.76;76.00
40954;BME280;26686;50.130;8.710;2023-02-12T04:25:55;102279.34;;;7.72;75.31
40954;BME280;26686;50.130;8.710;2023-02-12T04:31:05;102259.59;;;7.56;75.89
40954;BME280;26686;50.130;8.710;2023-02-12T04:36:20;102275.06;;;7.68;75.64
40954;BME280;26686;50.130;8.710;2023-02-12T04:41:24;102217.09;;;7.34;75.35
40954;BME280;26686;50.130;8.710;2023-02-12T04:46:26;102287.28;;;7.72;75.84
40954;BME280;26686;50.130;8.710;2023-02-12T04:51:27;102284.63;;;7.72;75.71
40954;BME280;26686;50.130;8.710;2023-02-12T04:56:29;102283.00;;;7.68;75.50
40954;BME280;26686;50.130;8.710;2023-02-12T05:01:32;102276.91;;;7.66;75.67
40954;BME280;26686;50.130;8.710;2023-02-12T05:06:36;102288.03;;;7.76;75.64
40954;BME280;26686;50.130;8.710;2023-02-12T05:11:38;102288.91;;;7.76;75.65
40954;BME280;26686;50.130;8.710;2023-02-12T05:16:39;102278.31;;;7.76;75.94
40954;BME280;26686;50.130;8.710;2023-02-12T05:21:40;102285.31;;;7.77;75.86
40954;BME280;26686;50.130;8.710;2023-02-12T05:26:42;102274.59;;;7.81;76.23
40954;BME280;26686;50.130;8.710;2023-02-12T05:31:44;102271.91;;;7.82;76.03
40954;BME280;26686;50.130;8.710;2023-02-12T05:36:45;102276.00;;;7.91;76.11
40954;BME280;26686;50.130;8.710;2023-02-12T05:41:46;102266.75;;;7.77;76.41
40954;BME280;26686;50.130;8.710;2023-02-12T05:46:48;102288.69;;;7.83;76.90
40954;BME280;26686;50.130;8.710;2023-02-12T05:51:49;102294.66;;;7.88;76.77
40954;BME280;26686;50.130;8.710;2023-02-12T05:56:51;102287.47;;;7.91;76.82
40954;BME280;26686;50.130;8.710;2023-02-12T06:01:52;102286.81;;;7.85;76.73
40954;BME280;26686;50.130;8.710;2023-02-12T06:06:54;102293.03;;;7.85;76.82
40954;BME280;26686;50.130;8.710;2023-02-12T06:11:56;102292.13;;;7.85;77.19
40954;BME280;26686;50.130;8.710;2023-02-12T06:16:57;102298.94;;;7.92;76.81
40954;BME280;26686;50.130;8.710;2023-02-12T06:21:59;102300.91;;;7.87;76.99
40954;BME280;26686;50.130;8.710;2023-02-12T06:27:00;102284.69;;;7.71;76.70
40954;BME280;26686;50.130;8.710;2023-02-12T06:32:02;102317.13;;;7.77;77.45
40954;BME280;26686;50.130;8.710;2023-02-12T06:37:03;102320.66;;;7.78;77.26
40954;BME280;26686;50.130;8.710;2023-02-12T06:42:05;102320.88;;;7.72;76.72
40954;BME280;26686;50.130;8.710;2023-02-12T06:47:06;102329.91;;;7.66;77.45
40954;BME280;26686;50.130;8.710;2023-02-12T06:52:07;102318.69;;;7.58;77.72
40954;BME280;26686;50.130;8.710;2023-02-12T06:57:09;102341.69;;;7.57;79.23
40954;BME280;26686;50.130;8.710;2023-02-12T07:02:10;102320.81;;;7.48;80.65
40954;BME280;26686;50.130;8.710;2023-02-12T07:07:12;102330.84;;;7.38;81.99
40954;BME280;26686;50.130;8.710;2023-02-12T07:12:13;102342.97;;;7.46;82.84
40954;BME280;26686;50.130;8.710;2023-02-12T07:17:14;102351.84;;;7.44;83.23
40954;BME280;26686;50.130;8.710;2023-02-12T07:22:16;102353.69;;;7.42;83.84
40954;BME280;26686;50.130;8.710;2023-02-12T07:27:17;102352.09;;;7.37;84.72
40954;BME280;26686;50.130;8.710;2023-02-12T07:32:18;102353.03;;;7.36;85.16
40954;BME280;26686;50.130;8.710;2023-02-12T07:37:20;102354.09;;;7.30;85.46
40954;BME280;26686;50.130;8.710;2023-02-12T07:42:23;102346.22;;;7.29;85.34
40954;BME280;26686;50.130;8.710;2023-02-12T07:47:24;102361.94;;;7.33;85.76
40954;BME280;26686;50.130;8.710;2023-02-12T07:52:25;102365.19;;;7.41;85.64
40954;BME280;26686;50.130;8.710;2023-02-12T07:57:27;102368.47;;;7.50;85.25
40954;BME280;26686;50.130;8.710;2023-02-12T08:02:28;102365.88;;;7.48;85.50
40954;BME280;26686;50.130;8.710;2023-02-12T08:07:29;102371.13;;;7.50;85.44
40954;BME280;26686;50.130;8.710;2023-02-12T08:12:31;102381.47;;;7.57;85.24
40954;BME280;26686;50.130;8.710;2023-02-12T08:17:33;102364.91;;;7.51;85.61
40954;BME280;26686;50.130;8.710;2023-02-12T08:22:34;102387.44;;;7.64;85.37
40954;BME280;26686;50.130;8.710;2023-02-12T08:27:35;102379.56;;;7.61;85.62
40954;BME280;26686;50.130;8.710;2023-02-12T08:32:37;102388.94;;;7.71;85.30
40954;BME280;26686;50.130;8.710;2023-02-12T08:37:38;102378.59;;;7.64;85.50
40954;BME280;26686;50.130;8.710;2023-02-12T08:42:40;102396.66;;;7.77;85.13
40954;BME280;26686;50.130;8.710;2023-02-12T08:47:41;102373.97;;;7.70;84.49
40954;BME280;26686;50.130;8.710;2023-02-12T08:52:42;102395.53;;;7.85;84.54
40954;BME280;26686;50.130;8.710;2023-02-12T08:57:44;102399.13;;;7.84;84.33
40954;BME280;26686;50.130;8.710;2023-02-12T09:02:47;102383.91;;;7.64;86.11
40954;BME280;26686;50.130;8.710;2023-02-12T09:07:50;102405.47;;;7.79;86.10
40954;BME280;26686;50.130;8.710;2023-02-12T09:12:53;102402.09;;;7.74;85.96
40954;BME280;26686;50.130;8.710;2023-02-12T09:17:55;102396.38;;;7.87;85.29
40954;BME280;26686;50.130;8.710;2023-02-12T09:22:57;102401.34;;;7.96;84.79
40954;BME280;26686;50.130;8.710;2023-02-12T09:28:02;102403.41;;;8.13;84.40
40954;BME280;26686;50.130;8.710;2023-02-12T09:33:05;102410.72;;;8.30;83.39
40954;BME280;26686;50.130;8.710;2023-02-12T09:38:07;102407.91;;;8.35;82.84
40954;BME280;26686;50.130;8.710;2023-02-12T09:43:41;102413.19;;;8.36;82.54
40954;BME280;26686;50.130;8.710;2023-02-12T09:48:52;102407.16;;;8.31;83.19
40954;BME280;26686;50.130;8.710;2023-02-12T09:54:02;102408.19;;;8.27;83.32
40954;BME280;26686;50.130;8.710;2023-02-12T09:59:07;102411.56;;;8.32;83.47
40954;BME280;26686;50.130;8.710;2023-02-12T10:04:09;102381.31;;;8.12;83.76
40954;BME280;26686;50.130;8.710;2023-02-12T10:25:52;102416.47;;;8.90;81.26
40954;BME280;26686;50.130;8.710;2023-02-12T10:31:16;102415.00;;;9.05;79.82
40954;BME280;26686;50.130;8.710;2023-02-12T10:36:43;102424.28;;;9.61;78.11
40954;BME280;26686;50.130;8.710;2023-02-12T10:41:47;102407.47;;;9.81;76.21
40954;BME280;26686;50.130;8.710;2023-02-12T10:46:49;102400.41;;;10.01;75.46
40954;BME280;26686;50.130;8.710;2023-02-12T10:52:29;102392.69;;;10.15;74.97
40954;BME280;26686;50.130;8.710;2023-02-12T10:57:37;102390.16;;;11.09;71.89
40954;BME280;26686;50.130;8.710;2023-02-12T11:02:39;102387.94;;;12.06;67.43
40954;BME280;26686;50.130;8.710;2023-02-12T11:07:49;102373.28;;;11.97;67.55
40954;BME280;26686;50.130;8.710;2023-02-12T11:12:51;102358.47;;;12.25;66.43
40954;BME280;26686;50.130;8.710;2023-02-12T11:18:23;102363.19;;;12.20;66.08
40954;BME280;26686;50.130;8.710;2023-02-12T11:23:32;102354.75;;;12.12;66.01
40954;BME280;26686;50.130;8.710;2023-02-12T11:28:35;102364.19;;;12.01;66.31
40954;BME280;26686;50.130;8.710;2023-02-12T11:33:37;102359.94;;;11.62;67.89
40954;BME280;26686;50.130;8.710;2023-02-12T11:38:48;102357.28;;;11.27;70.89
40954;BME280;26686;50.130;8.710;2023-02-12T11:43:50;102347.84;;;11.20;71.02
40954;BME280;26686;50.130;8.710;2023-02-12T11:48:54;102343.75;;;11.13;71.05
40954;BME280;26686;50.130;8.710;2023-02-12T11:53:59;102330.19;;;11.18;71.16
40954;BME280;26686;50.130;8.710;2023-02-12T11:59:11;102330.63;;;11.27;71.00
40954;BME280;26686;50.130;8.710;2023-02-12T12:04:19;102331.84;;;11.38;70.60
40954;BME280;26686;50.130;8.710;2023-02-12T12:09:27;102332.25;;;11.47;69.99
40954;BME280;26686;50.130;8.710;2023-02-12T12:14:31;102324.19;;;11.49;70.22
40954;BME280;26686;50.130;8.710;2023-02-12T12:19:59;102315.22;;;11.32;70.51
40954;BME280;26686;50.130;8.710;2023-02-12T12:41:26;102302.59;;;11.71;69.12
40954;BME280;26686;50.130;8.710;2023-02-12T12:57:48;102289.78;;;13.37;62.10
40954;BME280;26686;50.130;8.710;2023-02-12T13:08:38;102286.81;;;13.12;63.06
40954;BME280;26686;50.130;8.710;2023-02-12T13:13:47;102282.25;;;13.28;62.67
40954;BME280;26686;50.130;8.710;2023-02-12T13:19:14;102285.31;;;13.22;62.59
40954;BME280;26686;50.130;8.710;2023-02-12T13:24:36;102272.81;;;13.82;59.85
40954;BME280;26686;50.130;8.710;2023-02-12T13:29:43;102269.81;;;14.71;57.43
40954;BME280;26686;50.130;8.710;2023-02-12T13:34:46;102258.25;;;17.35;48.89
40954;BME280;26686;50.130;8.710;2023-02-12T13:39:49;102252.41;;;18.86;45.35
40954;BME280;26686;50.130;8.710;2023-02-12T13:45:18;102259.47;;;20.43;41.32
40954;BME280;26686;50.130;8.710;2023-02-12T13:50:41;102245.59;;;23.01;35.29
40954;BME280;26686;50.130;8.710;2023-02-12T14:01:40;102251.63;;;16.43;48.41
40954;BME280;26686;50.130;8.710;2023-02-12T14:06:56;102241.53;;;14.67;54.28
40954;BME280;26686;50.130;8.710;2023-02-12T14:12:03;102257.72;;;13.81;57.50
40954;BME280;26686;50.130;8.710;2023-02-12T14:27:43;102254.00;;;12.31;63.36
40954;BME280;26686;50.130;8.710;2023-02-12T14:37:59;102259.75;;;11.90;65.82
40954;BME280;26686;50.130;8.710;2023-02-12T14:43:03;102248.34;;;11.71;66.13
40954;BME280;26686;50.130;8.710;2023-02-12T14:53:50;102253.75;;;11.53;66.64
40954;BME280;26686;50.130;8.710;2023-02-12T14:58:56;102239.34;;;11.56;66.24
40954;BME280;26686;50.130;8.710;2023-02-12T15:04:10;102258.06;;;11.89;65.54
40954;BME280;26686;50.130;8.710;2023-02-12T15:09:20;102241.66;;;11.79;65.80
40954;BME280;26686;50.130;8.710;2023-02-12T15:14:30;102248.34;;;11.71;66.47
40954;BME280;26686;50.130;8.710;2023-02-12T15:20:00;102249.34;;;11.52;66.72
40954;BME280;26686;50.130;8.710;2023-02-12T15:30:29;102228.75;;;11.21;68.28
40954;BME280;26686;50.130;8.710;2023-02-12T15:35:38;102229.22;;;11.11;68.64
40954;BME280;26686;50.130;8.710;2023-02-12T15:40:54;102226.00;;;11.05;69.34
40954;BME280;26686;50.130;8.710;2023-02-12T15:45:56;102227.88;;;11.03;69.80
40954;BME280;26686;50.130;8.710;2023-02-12T15:51:04;102220.22;;;10.96;69.98
40954;BME280;26686;50.130;8.710;2023-02-12T15:56:12;102216.69;;;10.96;70.09
40954;BME280;26686;50.130;8.710;2023-02-12T16:01:23;102201.78;;;10.74;70.77
40954;BME280;26686;50.130;8.710;2023-02-12T16:06:27;102198.56;;;10.68;71.55
40954;BME280;26686;50.130;8.710;2023-02-12T16:11:29;102189.06;;;10.62;71.66
40954;BME280;26686;50.130;8.710;2023-02-12T16:16:58;102220.19;;;10.61;72.29
40954;BME280;26686;50.130;8.710;2023-02-12T16:22:04;102215.44;;;10.49;72.80
40954;BME280;26686;50.130;8.710;2023-02-12T16:27:16;102208.41;;;10.48;73.07
40954;BME280;26686;50.130;8.710;2023-02-12T16:32:42;102219.22;;;10.45;73.53
40954;BME280;26686;50.130;8.710;2023-02-12T16:37:49;102226.69;;;10.37;73.87
40954;BME280;26686;50.130;8.710;2023-02-12T16:43:00;102223.25;;;10.35;74.01
40954;BME280;26686;50.130;8.710;2023-02-12T16:58:33;102213.00;;;10.25;74.52
40954;BME280;26686;50.130;8.710;2023-02-12T17:03:36;102237.59;;;10.31;74.97
40954;BME280;26686;50.130;8.710;2023-02-12T17:08:37;102239.78;;;10.22;75.13
40954;BME280;26686;50.130;8.710;2023-02-12T17:13:39;102244.22;;;10.22;75.41
40954;BME280;26686;50.130;8.710;2023-02-12T17:18:40;102246.50;;;10.30;75.25
40954;BME280;26686;50.130;8.710;2023-02-12T17:23:42;102248.53;;;10.24;74.93
40954;BME280;26686;50.130;8.710;2023-02-12T17:28:43;102253.09;;;10.22;75.39
40954;BME280;26686;50.130;8.710;2023-02-12T17:33:45;102252.44;;;10.17;75.24
40954;BME280;26686;50.130;8.710;2023-02-12T17:38:46;102260.47;;;10.16;75.64
40954;BME280;26686;50.130;8.710;2023-02-12T17:43:48;102252.72;;;10.11;76.11
40954;BME280;26686;50.130;8.710;2023-02-12T17:48:49;102254.75;;;10.06;76.63
40954;BME280;26686;50.130;8.710;2023-02-12T17:53:51;102261.75;;;10.07;76.59
40954;BME280;26686;50.130;8.710;2023-02-12T17:58:52;102258.19;;;10.08;76.65
40954;BME280;26686;50.130;8.710;2023-02-12T18:03:56;102266.31;;;10.05;76.83
40954;BME280;26686;50.130;8.710;2023-02-12T18:08:58;102260.34;;;10.00;77.38
40954;BME280;26686;50.130;8.710;2023-02-12T18:14:01;102265.78;;;9.97;77.62
40954;BME280;26686;50.130;8.710;2023-02-12T18:19:03;102267.66;;;9.95;77.73
40954;BME280;26686;50.130;8.710;2023-02-12T18:24:05;102252.84;;;9.89;77.66
40954;BME280;26686;50.130;8.710;2023-02-12T18:29:07;102269.09;;;10.02;77.42
40954;BME280;26686;50.130;8.710;2023-02-12T18:34:08;102260.59;;;9.94;77.32
40954;BME280;26686;50.130;8.710;2023-02-12T18:39:10;102267.53;;;9.98;77.08
40954;BME280;26686;50.130;8.710;2023-02-12T18:44:12;102265.00;;;9.95;77.17
40954;BME280;26686;50.130;8.710;2023-02-12T18:49:13;102272.69;;;10.01;76.87
40954;BME280;26686;50.130;8.710;2023-02-12T18:54:16;102273.69;;;9.98;76.91
40954;BME280;26686;50.130;8.710;2023-02-12T18:59:18;102258.09;;;9.90;76.88
40954;BME280;26686;50.130;8.710;2023-02-12T19:04:21;102270.47;;;9.91;77.35
40954;BME280;26686;50.130;8.710;2023-02-12T19:09:25;102268.59;;;9.94;76.93
40954;BME280;26686;50.130;8.710;2023-02-12T19:14:27;102268.78;;;9.89;77.24
40954;BME280;26686;50.130;8.710;2023-02-12T19:19:28;102266.06;;;9.90;77.11
40954;BME280;26686;50.130;8.710;2023-02-12T19:24:30;102263.75;;;9.83;77.02
40954;BME280;26686;50.130;8.710;2023-02-12T19:29:46;102286.69;;;9.85;77.13
40954;BME280;26686;50.130;8.710;2023-02-12T19:34:48;102268.22;;;9.82;77.48
40954;BME280;26686;50.130;8.710;2023-02-12T19:39:49;102247.19;;;9.57;77.48
40954;BME280;26686;50.130;8.710;2023-02-12T19:44:51;102271.59;;;9.67;77.82
40954;BME280;26686;50.130;8.710;2023-02-12T19:49:52;102271.50;;;9.68;77.71
40954;BME280;26686;50.130;8.710;2023-02-12T19:54:54;102272.22;;;9.72;77.71
40954;BME280;26686;50.130;8.710;2023-02-12T19:59:55;102277.41;;;9.75;77.63
40954;BME280;26686;50.130;8.710;2023-02-12T20:04:56;102265.44;;;9.65;77.88
40954;BME280;26686;50.130;8.710;2023-02-12T20:09:58;102266.44;;;9.62;77.93
40954;BME280;26686;50.130;8.710;2023-02-12T20:14:59;102274.09;;;9.70;78.02
40954;BME280;26686;50.130;8.710;2023-02-12T20:20:04;102263.47;;;9.70;77.79
40954;BME280;26686;50.130;8.710;2023-02-12T20:25:06;102275.88;;;9.69;77.76
40954;BME280;26686;50.130;8.710;2023-02-12T20:30:08;102268.03;;;9.66;77.85
40954;BME280;26686;50.130;8.710;2023-02-12T20:35:11;102260.19;;;9.63;77.44
40954;BME280;26686;50.130;8.710;2023-02-12T20:40:13;102270.75;;;9.65;77.70
40954;BME280;26686;50.130;8.710;2023-02-12T20:45:14;102293.63;;;9.69;77.64
40954;BME280;26686;50.130;8.710;2023-02-12T20:50:15;102284.88;;;9.67;77.70
40954;BME280;26686;50.130;8.710;2023-02-12T20:55:17;102287.13;;;9.55;78.06
40954;BME280;26686;50.130;8.710;2023-02-12T21:00:18;102291.47;;;9.58;78.14
40954;BME280;26686;50.130;8.710;2023-02-12T21:05:20;102296.16;;;9.51;78.17
40954;BME280;26686;50.130;8.710;2023-02-12T21:10:21;102291.66;;;9.53;78.04
40954;BME280;26686;50.130;8.710;2023-02-12T21:15:23;102308.34;;;9.57;78.07
40954;BME280;26686;50.130;8.710;2023-02-12T21:20:25;102296.44;;;9.45;78.22
40954;BME280;26686;50.130;8.710;2023-02-12T21:25:26;102302.28;;;9.53;78.01
40954;BME280;26686;50.130;8.710;2023-02-12T21:30:27;102308.66;;;9.49;78.00
40954;BME280;26686;50.130;8.710;2023-02-12T21:35:29;102321.19;;;9.47;77.95
40954;BME280;26686;50.130;8.710;2023-02-12T21:40:30;102318.53;;;9.47;78.16
40954;BME280;26686;50.130;8.710;2023-02-12T21:45:32;102323.91;;;9.46;77.97
40954;BME280;26686;50.130;8.710;2023-02-12T21:50:34;102322.94;;;9.47;77.97
40954;BME280;26686;50.130;8.710;2023-02-12T21:55:36;102314.66;;;9.34;77.88
40954;BME280;26686;50.130;8.710;2023-02-12T22:00:38;102326.59;;;9.44;77.89
40954;BME280;26686;50.130;8.710;2023-02-12T22:05:39;102316.84;;;9.45;77.34
40954;BME280;26686;50.130;8.710;2023-02-12T22:10:41;102313.19;;;9.27;77.31
40954;BME280;26686;50.130;8.710;2023-02-12T22:15:42;102314.91;;;9.28;77.38
40954;BME280;26686;50.130;8.710;2023-02-12T22:20:43;102317.75;;;9.23;77.22
40954;BME280;26686;50.130;8.710;2023-02-12T22:25:45;102323.69;;;9.30;77.04
40954;BME280;26686;50.130;8.710;2023-02-12T22:30:46;102311.38;;;9.27;76.39
40954;BME280;26686;50.130;8.710;2023-02-12T22:35:48;102318.69;;;9.22;76.47
40954;BME280;26686;50.130;8.710;2023-02-12T22:40:51;102328.31;;;9.25;76.81
40954;BME280;26686;50.130;8.710;2023-02-12T22:45:53;102318.19;;;9.12;76.90
40954;BME280;26686;50.130;8.710;2023-02-12T22:50:56;102337.94;;;9.27;76.99
40954;BME280;26686;50.130;8.710;2023-02-12T22:56:01;102339.75;;;9.27;76.97
40954;BME280;26686;50.130;8.710;2023-02-12T23:01:08;102345.06;;;9.27;76.73
40954;BME280;26686;50.130;8.710;2023-02-12T23:06:15;102334.81;;;9.17;76.64
40954;BME280;26686;50.130;8.710;2023-02-12T23:11:17;102343.59;;;9.19;76.45
40954;BME280;26686;50.130;8.710;2023-02-12T23:16:19;102332.97;;;9.19;76.27
40954;BME280;26686;50.130;8.710;2023-02-12T23:21:21;102337.47;;;9.17;76.01
40954;BME280;26686;50.130;8.710;2023-02-12T23:26:23;102268.25;;;8.78;75.96
40954;BME280;26686;50.130;8.710;2023-02-12T23:31:25;102324.78;;;9.24;75.69
40954;BME280;26686;50.130;8.710;2023-02-12T23:36:26;102324.91;;;9.21;75.47
40954;BME280;26686;50.130;8.710;2023-02-12T23:41:28;102306.78;;;9.10;75.75
40954;BME280;26686;50.130;8.710;2023-02-12T23:46:29;102320.47;;;9.22;75.72
40954;BME280;26686;50.130;8.710;2023-02-12T23:51:31;102311.56;;;9.23;75.57
40954;BME280;26686;50.130;8.710;2023-02-12T23:56:33;102300.47;;;9.13;75.17
